sensor_id;sensor_type;location;lat;lon;timestamp;P1;durP1;ratioP1;P2;durP2;ratioP2
60873;SDS011;46715;40.642;-7.920;2023-01-16T00:01:55;15.90;;;5.73;;
60873;SDS011;46715;40.642;-7.920;2023-01-16T00:04:00;12.88;;;5.38;;
60873;SDS011;46715;40.642;-7.920;2023-01-16T00:06:01;17.42;;;6.20;;
60873;SDS011;46715;40.642;-7.920;2023-01-16T00:08:02;13.93;;;5.00;;
60873;SDS011;46715;40.642;-7.920;2023-01-16T00:10:10;17.67;;;5.80;;
60873;SDS011;46715;40.642;-7.920;2023-01-16T00:12:11;19.70;;;5.00;;
60873;SDS011;46715;40.642;-7.920;2023-01-16T00:14:12;18.20;;;5.77;;
60873;SDS011;46715;40.642;-7.920;2023-01-16T00:16:13;19.40;;;5.82;;
60873;SDS011;46715;40.642;-7.920;2023-01-16T00:18:14;18.40;;;6.00;;
60873;SDS011;46715;40.642;-7.920;2023-01-16T00:20:18;16.15;;;5.95;;
60873;SDS011;46715;40.642;-7.920;2023-01-16T00:22:19;17.55;;;6.20;;
60873;SDS011;46715;40.642;-7.920;2023-01-16T00:24:22;17.53;;;6.00;;
60873;SDS011;46715;40.642;-7.920;2023-01-16T00:26:23;18.70;;;6.28;;
60873;SDS011;46715;40.642;-7.920;2023-01-16T00:28:25;15.32;;;6.28;;
60873;SDS011;46715;40.642;-7.920;2023-01-16T00:30:26;14.80;;;6.17;;
60873;SDS011;46715;40.642;-7.920;2023-01-16T00:32:27;14.87;;;5.60;;
60873;SDS011;46715;40.642;-7.920;2023-01-16T00:34:31;13.80;;;5.60;;
60873;SDS011;46715;40.642;-7.920;2023-01-16T00:36:35;20.30;;;6.22;;
60873;SDS011;46715;40.642;-7.920;2023-01-16T00:38:41;12.27;;;5.22;;
60873;SDS011;46715;40.642;-7.920;2023-01-16T00:40:42;23.20;;;6.67;;
60873;SDS011;46715;40.642;-7.920;2023-01-16T00:42:43;22.40;;;6.97;;
60873;SDS011;46715;40.642;-7.920;2023-01-16T00:44:44;17.57;;;5.83;;
60873;SDS011;46715;40.642;-7.920;2023-01-16T00:46:45;11.00;;;4.70;;
60873;SDS011;46715;40.642;-7.920;2023-01-16T00:48:46;18.63;;;6.50;;
60873;SDS011;46715;40.642;-7.920;2023-01-16T00:50:46;20.70;;;7.47;;
60873;SDS011;46715;40.642;-7.920;2023-01-16T00:52:48;12.48;;;5.80;;
60873;SDS011;46715;40.642;-7.920;2023-01-16T00:54:49;13.00;;;4.93;;
60873;SDS011;46715;40.642;-7.920;2023-01-16T00:56:50;22.90;;;5.80;;
60873;SDS011;46715;40.642;-7.920;2023-01-16T00:58:54;12.53;;;5.23;;
60873;SDS011;46715;40.642;-7.920;2023-01-16T01:00:54;20.00;;;5.60;;
60873;SDS011;46715;40.642;-7.920;2023-01-16T01:02:55;13.53;;;5.30;;
60873;SDS011;46715;40.642;-7.920;2023-01-16T01:04:56;20.63;;;5.27;;
60873;SDS011;46715;40.642;-7.920;2023-01-16T01:06:57;13.53;;;4.47;;
60873;SDS011;46715;40.642;-7.920;2023-01-16T01:08:58;18.90;;;5.37;;
60873;SDS011;46715;40.642;-7.920;2023-01-16T01:11:05;15.43;;;5.33;;
60873;SDS011;46715;40.642;-7.920;2023-01-16T01:13:10;17.73;;;4.72;;
60873;SDS011;46715;40.642;-7.920;2023-01-16T01:15:11;17.45;;;4.22;;
60873;SDS011;46715;40.642;-7.920;2023-01-16T01:17:14;15.97;;;4.37;;
60873;SDS011;46715;40.642;-7.920;2023-01-16T01:26:15;8.80;;;3.67;;
60873;SDS011;46715;40.642;-7.920;2023-01-16T01:28:27;19.65;;;5.43;;
60873;SDS011;46715;40.642;-7.920;2023-01-16T01:33:58;12.82;;;3.83;;
60873;SDS011;46715;40.642;-7.920;2023-01-16T01:35:59;14.90;;;3.60;;
60873;SDS011;46715;40.642;-7.920;2023-01-16T01:38:00;15.70;;;3.87;;
60873;SDS011;46715;40.642;-7.920;2023-01-16T01:40:02;8.27;;;3.63;;
60873;SDS011;46715;40.642;-7.920;2023-01-16T01:42:04;14.23;;;3.78;;
60873;SDS011;46715;40.642;-7.920;2023-01-16T01:44:41;13.25;;;3.85;;
60873;SDS011;46715;40.642;-7.920;2023-01-16T01:47:06;11.35;;;3.90;;
60873;SDS011;46715;40.642;-7.920;2023-01-16T01:51:19;11.00;;;3.17;;
60873;SDS011;46715;40.642;-7.920;2023-01-16T01:53:30;12.88;;;3.65;;
60873;SDS011;46715;40.642;-7.920;2023-01-16T01:55:41;13.63;;;4.45;;
60873;SDS011;46715;40.642;-7.920;2023-01-16T01:57:47;8.93;;;3.28;;
60873;SDS011;46715;40.642;-7.920;2023-01-16T01:59:57;10.63;;;4.10;;
60873;SDS011;46715;40.642;-7.920;2023-01-16T02:02:12;17.27;;;4.32;;
60873;SDS011;46715;40.642;-7.920;2023-01-16T02:04:19;8.57;;;3.38;;
60873;SDS011;46715;40.642;-7.920;2023-01-16T02:06:28;10.05;;;3.10;;
60873;SDS011;46715;40.642;-7.920;2023-01-16T02:08:35;12.40;;;3.17;;
60873;SDS011;46715;40.642;-7.920;2023-01-16T02:10:38;15.70;;;3.40;;
60873;SDS011;46715;40.642;-7.920;2023-01-16T02:12:43;12.43;;;4.25;;
60873;SDS011;46715;40.642;-7.920;2023-01-16T02:14:44;12.77;;;3.40;;
60873;SDS011;46715;40.642;-7.920;2023-01-16T02:16:50;13.95;;;3.78;;
60873;SDS011;46715;40.642;-7.920;2023-01-16T02:26:30;14.00;;;4.00;;
60873;SDS011;46715;40.642;-7.920;2023-01-16T02:29:42;12.70;;;3.28;;
60873;SDS011;46715;40.642;-7.920;2023-01-16T02:31:30;12.90;;;3.72;;
60873;SDS011;46715;40.642;-7.920;2023-01-16T02:43:58;14.15;;;3.70;;
60873;SDS011;46715;40.642;-7.920;2023-01-16T02:46:24;15.00;;;3.85;;
60873;SDS011;46715;40.642;-7.920;2023-01-16T02:48:40;14.10;;;3.15;;
60873;SDS011;46715;40.642;-7.920;2023-01-16T02:51:37;13.23;;;3.33;;
60873;SDS011;46715;40.642;-7.920;2023-01-16T02:55:31;10.88;;;3.15;;
60873;SDS011;46715;40.642;-7.920;2023-01-16T02:57:55;10.60;;;3.45;;
60873;SDS011;46715;40.642;-7.920;2023-01-16T02:59:59;12.75;;;3.88;;
60873;SDS011;46715;40.642;-7.920;2023-01-16T03:02:00;8.02;;;3.45;;
60873;SDS011;46715;40.642;-7.920;2023-01-16T03:04:04;7.90;;;3.67;;
60873;SDS011;46715;40.642;-7.920;2023-01-16T03:11:14;10.43;;;3.13;;
60873;SDS011;46715;40.642;-7.920;2023-01-16T03:29:57;8.60;;;2.70;;
60873;SDS011;46715;40.642;-7.920;2023-01-16T03:32:08;7.85;;;2.80;;
60873;SDS011;46715;40.642;-7.920;2023-01-16T03:37:16;8.27;;;2.55;;
60873;SDS011;46715;40.642;-7.920;2023-01-16T03:39:24;8.48;;;2.70;;
60873;SDS011;46715;40.642;-7.920;2023-01-16T03:41:31;10.30;;;2.50;;
60873;SDS011;46715;40.642;-7.920;2023-01-16T03:43:36;6.93;;;2.58;;
60873;SDS011;46715;40.642;-7.920;2023-01-16T03:45:40;9.00;;;2.30;;
60873;SDS011;46715;40.642;-7.920;2023-01-16T03:47:47;5.88;;;2.63;;
60873;SDS011;46715;40.642;-7.920;2023-01-16T03:49:52;5.82;;;2.47;;
60873;SDS011;46715;40.642;-7.920;2023-01-16T03:51:59;8.60;;;2.55;;
60873;SDS011;46715;40.642;-7.920;2023-01-16T03:54:07;12.23;;;2.60;;
60873;SDS011;46715;40.642;-7.920;2023-01-16T03:56:34;7.90;;;2.80;;
60873;SDS011;46715;40.642;-7.920;2023-01-16T03:58:41;4.72;;;2.47;;
60873;SDS011;46715;40.642;-7.920;2023-01-16T04:00:51;7.43;;;2.42;;
60873;SDS011;46715;40.642;-7.920;2023-01-16T04:03:08;6.75;;;2.03;;
60873;SDS011;46715;40.642;-7.920;2023-01-16T04:10:12;6.20;;;1.95;;
60873;SDS011;46715;40.642;-7.920;2023-01-16T04:12:19;6.75;;;2.47;;
60873;SDS011;46715;40.642;-7.920;2023-01-16T04:14:23;10.45;;;1.77;;
60873;SDS011;46715;40.642;-7.920;2023-01-16T04:16:25;4.70;;;2.03;;
60873;SDS011;46715;40.642;-7.920;2023-01-16T04:18:30;3.47;;;1.50;;
60873;SDS011;46715;40.642;-7.920;2023-01-16T04:20:34;4.35;;;1.92;;
60873;SDS011;46715;40.642;-7.920;2023-01-16T04:22:38;6.72;;;1.92;;
60873;SDS011;46715;40.642;-7.920;2023-01-16T04:24:39;7.67;;;2.63;;
60873;SDS011;46715;40.642;-7.920;2023-01-16T04:26:40;4.77;;;1.97;;
60873;SDS011;46715;40.642;-7.920;2023-01-16T04:28:41;4.87;;;1.90;;
60873;SDS011;46715;40.642;-7.920;2023-01-16T04:34:27;9.55;;;2.40;;
60873;SDS011;46715;40.642;-7.920;2023-01-16T04:36:28;8.95;;;1.85;;
60873;SDS011;46715;40.642;-7.920;2023-01-16T04:38:35;5.72;;;2.08;;
60873;SDS011;46715;40.642;-7.920;2023-01-16T04:40:35;7.23;;;1.80;;
60873;SDS011;46715;40.642;-7.920;2023-01-16T04:42:36;6.97;;;1.93;;
60873;SDS011;46715;40.642;-7.920;2023-01-16T04:44:37;8.63;;;1.73;;
60873;SDS011;46715;40.642;-7.920;2023-01-16T04:46:38;6.90;;;1.52;;
60873;SDS011;46715;40.642;-7.920;2023-01-16T04:55:15;2.42;;;1.25;;
60873;SDS011;46715;40.642;-7.920;2023-01-16T05:13:15;2.97;;;1.20;;
60873;SDS011;46715;40.642;-7.920;2023-01-16T05:15:27;4.97;;;1.48;;
60873;SDS011;46715;40.642;-7.920;2023-01-16T05:17:43;3.72;;;1.35;;
60873;SDS011;46715;40.642;-7.920;2023-01-16T05:19:47;5.60;;;1.20;;
60873;SDS011;46715;40.642;-7.920;2023-01-16T05:21:47;6.75;;;1.30;;
60873;SDS011;46715;40.642;-7.920;2023-01-16T05:23:48;6.93;;;1.43;;
60873;SDS011;46715;40.642;-7.920;2023-01-16T05:25:49;6.77;;;1.83;;
60873;SDS011;46715;40.642;-7.920;2023-01-16T05:27:50;8.43;;;1.30;;
60873;SDS011;46715;40.642;-7.920;2023-01-16T05:29:51;7.00;;;1.50;;
60873;SDS011;46715;40.642;-7.920;2023-01-16T05:31:53;8.77;;;1.10;;
60873;SDS011;46715;40.642;-7.920;2023-01-16T05:33:53;4.77;;;1.30;;
60873;SDS011;46715;40.642;-7.920;2023-01-16T05:35:54;6.03;;;1.37;;
60873;SDS011;46715;40.642;-7.920;2023-01-16T05:37:56;5.35;;;2.40;;
60873;SDS011;46715;40.642;-7.920;2023-01-16T05:39:56;8.33;;;1.50;;
60873;SDS011;46715;40.642;-7.920;2023-01-16T05:41:57;2.10;;;1.10;;
60873;SDS011;46715;40.642;-7.920;2023-01-16T05:43:59;5.45;;;1.40;;
60873;SDS011;46715;40.642;-7.920;2023-01-16T05:45:59;4.47;;;1.20;;
60873;SDS011;46715;40.642;-7.920;2023-01-16T05:48:00;4.87;;;1.50;;
60873;SDS011;46715;40.642;-7.920;2023-01-16T05:50:02;8.43;;;1.70;;
60873;SDS011;46715;40.642;-7.920;2023-01-16T05:52:03;5.97;;;1.33;;
60873;SDS011;46715;40.642;-7.920;2023-01-16T05:54:04;5.13;;;1.90;;
60873;SDS011;46715;40.642;-7.920;2023-01-16T05:56:09;10.10;;;1.65;;
60873;SDS011;46715;40.642;-7.920;2023-01-16T05:58:11;3.60;;;0.93;;
60873;SDS011;46715;40.642;-7.920;2023-01-16T06:00:14;6.45;;;1.35;;
60873;SDS011;46715;40.642;-7.920;2023-01-16T06:02:19;4.55;;;1.10;;
60873;SDS011;46715;40.642;-7.920;2023-01-16T06:04:20;4.35;;;1.15;;
60873;SDS011;46715;40.642;-7.920;2023-01-16T06:06:21;3.87;;;1.43;;
60873;SDS011;46715;40.642;-7.920;2023-01-16T06:08:22;7.53;;;1.30;;
60873;SDS011;46715;40.642;-7.920;2023-01-16T06:10:23;6.50;;;1.10;;
60873;SDS011;46715;40.642;-7.920;2023-01-16T06:12:25;6.38;;;1.42;;
60873;SDS011;46715;40.642;-7.920;2023-01-16T06:14:26;7.17;;;1.27;;
60873;SDS011;46715;40.642;-7.920;2023-01-16T06:16:26;9.93;;;1.73;;
60873;SDS011;46715;40.642;-7.920;2023-01-16T06:18:27;3.93;;;1.20;;
60873;SDS011;46715;40.642;-7.920;2023-01-16T06:20:28;7.53;;;1.73;;
60873;SDS011;46715;40.642;-7.920;2023-01-16T06:22:30;7.18;;;1.50;;
60873;SDS011;46715;40.642;-7.920;2023-01-16T06:24:32;3.23;;;1.60;;
60873;SDS011;46715;40.642;-7.920;2023-01-16T06:26:33;6.70;;;1.35;;
60873;SDS011;46715;40.642;-7.920;2023-01-16T06:28:34;3.07;;;1.13;;
60873;SDS011;46715;40.642;-7.920;2023-01-16T06:30:34;6.87;;;1.33;;
60873;SDS011;46715;40.642;-7.920;2023-01-16T06:32:35;6.83;;;1.20;;
60873;SDS011;46715;40.642;-7.920;2023-01-16T06:34:36;8.53;;;2.10;;
60873;SDS011;46715;40.642;-7.920;2023-01-16T06:36:41;10.05;;;1.88;;
60873;SDS011;46715;40.642;-7.920;2023-01-16T06:38:42;14.87;;;2.60;;
60873;SDS011;46715;40.642;-7.920;2023-01-16T06:44:37;16.25;;;2.92;;
60873;SDS011;46715;40.642;-7.920;2023-01-16T06:46:39;21.23;;;3.90;;
60873;SDS011;46715;40.642;-7.920;2023-01-16T06:48:39;18.87;;;3.63;;
60873;SDS011;46715;40.642;-7.920;2023-01-16T06:50:41;11.90;;;3.13;;
60873;SDS011;46715;40.642;-7.920;2023-01-16T06:52:42;16.97;;;3.27;;
60873;SDS011;46715;40.642;-7.920;2023-01-16T06:54:43;13.87;;;3.80;;
60873;SDS011;46715;40.642;-7.920;2023-01-16T06:56:44;20.73;;;3.50;;
60873;SDS011;46715;40.642;-7.920;2023-01-16T06:58:45;13.48;;;3.33;;
60873;SDS011;46715;40.642;-7.920;2023-01-16T07:00:46;15.80;;;3.20;;
60873;SDS011;46715;40.642;-7.920;2023-01-16T07:02:54;18.67;;;2.92;;
60873;SDS011;46715;40.642;-7.920;2023-01-16T07:04:56;13.80;;;3.30;;
60873;SDS011;46715;40.642;-7.920;2023-01-16T07:06:58;17.77;;;2.95;;
60873;SDS011;46715;40.642;-7.920;2023-01-16T07:08:58;9.97;;;3.03;;
60873;SDS011;46715;40.642;-7.920;2023-01-16T07:11:00;12.98;;;3.90;;
60873;SDS011;46715;40.642;-7.920;2023-01-16T07:13:01;18.35;;;4.45;;
60873;SDS011;46715;40.642;-7.920;2023-01-16T07:15:02;13.10;;;3.57;;
60873;SDS011;46715;40.642;-7.920;2023-01-16T07:17:22;19.55;;;4.22;;
60873;SDS011;46715;40.642;-7.920;2023-01-16T07:19:41;21.20;;;3.83;;
60873;SDS011;46715;40.642;-7.920;2023-01-16T07:22:01;14.77;;;3.97;;
60873;SDS011;46715;40.642;-7.920;2023-01-16T07:24:21;13.73;;;2.90;;
60873;SDS011;46715;40.642;-7.920;2023-01-16T07:26:26;13.98;;;2.45;;
60873;SDS011;46715;40.642;-7.920;2023-01-16T07:28:36;17.65;;;3.15;;
60873;SDS011;46715;40.642;-7.920;2023-01-16T07:35:07;17.05;;;3.08;;
60873;SDS011;46715;40.642;-7.920;2023-01-16T07:39:10;15.43;;;3.00;;
60873;SDS011;46715;40.642;-7.920;2023-01-16T07:41:11;23.40;;;4.00;;
60873;SDS011;46715;40.642;-7.920;2023-01-16T07:43:14;15.57;;;3.35;;
60873;SDS011;46715;40.642;-7.920;2023-01-16T07:45:15;18.87;;;3.83;;
60873;SDS011;46715;40.642;-7.920;2023-01-16T07:47:16;24.90;;;4.70;;
60873;SDS011;46715;40.642;-7.920;2023-01-16T07:49:19;22.77;;;3.43;;
60873;SDS011;46715;40.642;-7.920;2023-01-16T07:51:20;23.58;;;4.07;;
60873;SDS011;46715;40.642;-7.920;2023-01-16T07:53:27;17.63;;;4.10;;
60873;SDS011;46715;40.642;-7.920;2023-01-16T07:55:32;21.30;;;4.55;;
60873;SDS011;46715;40.642;-7.920;2023-01-16T07:57:35;28.90;;;4.38;;
60873;SDS011;46715;40.642;-7.920;2023-01-16T07:59:37;23.38;;;4.68;;
60873;SDS011;46715;40.642;-7.920;2023-01-16T08:01:41;21.38;;;4.13;;
60873;SDS011;46715;40.642;-7.920;2023-01-16T08:03:42;22.73;;;4.75;;
60873;SDS011;46715;40.642;-7.920;2023-01-16T08:05:43;20.57;;;4.20;;
60873;SDS011;46715;40.642;-7.920;2023-01-16T08:07:44;15.73;;;3.47;;
60873;SDS011;46715;40.642;-7.920;2023-01-16T08:09:47;20.52;;;4.03;;
60873;SDS011;46715;40.642;-7.920;2023-01-16T08:11:47;13.23;;;2.90;;
60873;SDS011;46715;40.642;-7.920;2023-01-16T08:13:48;11.98;;;2.80;;
60873;SDS011;46715;40.642;-7.920;2023-01-16T08:15:49;9.73;;;2.40;;
60873;SDS011;46715;40.642;-7.920;2023-01-16T08:17:50;15.25;;;3.30;;
60873;SDS011;46715;40.642;-7.920;2023-01-16T08:19:51;11.20;;;2.67;;
60873;SDS011;46715;40.642;-7.920;2023-01-16T08:21:52;9.50;;;2.60;;
60873;SDS011;46715;40.642;-7.920;2023-01-16T08:23:53;7.27;;;2.20;;
60873;SDS011;46715;40.642;-7.920;2023-01-16T08:25:54;6.17;;;1.90;;
60873;SDS011;46715;40.642;-7.920;2023-01-16T08:27:55;10.37;;;2.23;;
60873;SDS011;46715;40.642;-7.920;2023-01-16T08:29:56;11.38;;;2.72;;
60873;SDS011;46715;40.642;-7.920;2023-01-16T08:31:57;7.17;;;2.10;;
60873;SDS011;46715;40.642;-7.920;2023-01-16T08:33:58;8.82;;;2.45;;
60873;SDS011;46715;40.642;-7.920;2023-01-16T08:35:59;9.93;;;2.23;;
60873;SDS011;46715;40.642;-7.920;2023-01-16T08:38:03;9.02;;;2.40;;
60873;SDS011;46715;40.642;-7.920;2023-01-16T08:40:04;10.03;;;2.43;;
60873;SDS011;46715;40.642;-7.920;2023-01-16T08:42:05;22.52;;;13.13;;
60873;SDS011;46715;40.642;-7.920;2023-01-16T08:44:25;13.32;;;2.47;;
60873;SDS011;46715;40.642;-7.920;2023-01-16T08:46:46;13.43;;;2.58;;
60873;SDS011;46715;40.642;-7.920;2023-01-16T08:49:13;15.60;;;2.35;;
60873;SDS011;46715;40.642;-7.920;2023-01-16T08:51:34;17.20;;;2.72;;
60873;SDS011;46715;40.642;-7.920;2023-01-16T08:53:35;16.42;;;4.47;;
60873;SDS011;46715;40.642;-7.920;2023-01-16T08:55:36;12.57;;;2.97;;
60873;SDS011;46715;40.642;-7.920;2023-01-16T08:57:41;14.85;;;2.95;;
60873;SDS011;46715;40.642;-7.920;2023-01-16T08:59:42;14.52;;;3.45;;
60873;SDS011;46715;40.642;-7.920;2023-01-16T09:01:52;10.87;;;3.00;;
60873;SDS011;46715;40.642;-7.920;2023-01-16T09:03:53;14.40;;;3.22;;
60873;SDS011;46715;40.642;-7.920;2023-01-16T09:05:53;12.60;;;3.87;;
60873;SDS011;46715;40.642;-7.920;2023-01-16T09:07:57;19.73;;;3.75;;
60873;SDS011;46715;40.642;-7.920;2023-01-16T09:10:00;8.67;;;3.40;;
60873;SDS011;46715;40.642;-7.920;2023-01-16T09:12:02;12.80;;;3.10;;
60873;SDS011;46715;40.642;-7.920;2023-01-16T09:14:21;12.60;;;2.75;;
60873;SDS011;46715;40.642;-7.920;2023-01-16T09:16:23;14.80;;;4.15;;
60873;SDS011;46715;40.642;-7.920;2023-01-16T09:20:25;7.18;;;2.45;;
60873;SDS011;46715;40.642;-7.920;2023-01-16T09:22:26;15.80;;;3.20;;
60873;SDS011;46715;40.642;-7.920;2023-01-16T09:24:28;10.73;;;3.22;;
60873;SDS011;46715;40.642;-7.920;2023-01-16T09:26:29;12.80;;;2.37;;
60873;SDS011;46715;40.642;-7.920;2023-01-16T09:28:32;10.07;;;2.90;;
60873;SDS011;46715;40.642;-7.920;2023-01-16T09:30:33;14.82;;;3.63;;
60873;SDS011;46715;40.642;-7.920;2023-01-16T09:32:33;13.10;;;4.20;;
60873;SDS011;46715;40.642;-7.920;2023-01-16T09:34:37;10.07;;;2.80;;
60873;SDS011;46715;40.642;-7.920;2023-01-16T09:36:39;6.88;;;2.47;;
60873;SDS011;46715;40.642;-7.920;2023-01-16T09:38:40;12.57;;;2.77;;
60873;SDS011;46715;40.642;-7.920;2023-01-16T09:40:45;15.38;;;3.30;;
60873;SDS011;46715;40.642;-7.920;2023-01-16T09:45:28;12.43;;;2.47;;
60873;SDS011;46715;40.642;-7.920;2023-01-16T09:47:32;10.18;;;2.20;;
60873;SDS011;46715;40.642;-7.920;2023-01-16T09:49:55;10.63;;;2.78;;
60873;SDS011;46715;40.642;-7.920;2023-01-16T09:51:59;7.88;;;2.28;;
60873;SDS011;46715;40.642;-7.920;2023-01-16T09:54:22;7.88;;;2.30;;
60873;SDS011;46715;40.642;-7.920;2023-01-16T09:56:47;13.48;;;2.55;;
60873;SDS011;46715;40.642;-7.920;2023-01-16T10:01:30;13.90;;;3.08;;
60873;SDS011;46715;40.642;-7.920;2023-01-16T10:03:37;9.18;;;3.03;;
60873;SDS011;46715;40.642;-7.920;2023-01-16T10:05:46;8.65;;;2.75;;
60873;SDS011;46715;40.642;-7.920;2023-01-16T10:08:19;7.40;;;3.03;;
60873;SDS011;46715;40.642;-7.920;2023-01-16T10:10:55;8.20;;;2.75;;
60873;SDS011;46715;40.642;-7.920;2023-01-16T10:20:16;13.05;;;3.03;;
60873;SDS011;46715;40.642;-7.920;2023-01-16T10:22:36;15.90;;;3.30;;
60873;SDS011;46715;40.642;-7.920;2023-01-16T10:24:51;16.42;;;3.10;;
60873;SDS011;46715;40.642;-7.920;2023-01-16T10:26:57;14.13;;;3.58;;
60873;SDS011;46715;40.642;-7.920;2023-01-16T10:31:18;21.77;;;3.78;;
60873;SDS011;46715;40.642;-7.920;2023-01-16T10:33:39;19.05;;;3.60;;
60873;SDS011;46715;40.642;-7.920;2023-01-16T10:35:47;15.93;;;3.58;;
60873;SDS011;46715;40.642;-7.920;2023-01-16T10:37:49;22.60;;;4.75;;
60873;SDS011;46715;40.642;-7.920;2023-01-16T10:41:59;12.88;;;3.83;;
60873;SDS011;46715;40.642;-7.920;2023-01-16T10:44:34;17.60;;;4.43;;
60873;SDS011;46715;40.642;-7.920;2023-01-16T10:46:55;16.65;;;4.47;;
60873;SDS011;46715;40.642;-7.920;2023-01-16T10:49:16;18.05;;;4.38;;
60873;SDS011;46715;40.642;-7.920;2023-01-16T10:51:29;23.13;;;4.20;;
60873;SDS011;46715;40.642;-7.920;2023-01-16T10:53:34;16.85;;;3.45;;
60873;SDS011;46715;40.642;-7.920;2023-01-16T10:55:37;21.75;;;4.28;;
60873;SDS011;46715;40.642;-7.920;2023-01-16T10:57:54;14.23;;;4.03;;
60873;SDS011;46715;40.642;-7.920;2023-01-16T11:00:00;19.33;;;4.00;;
60873;SDS011;46715;40.642;-7.920;2023-01-16T11:02:12;14.15;;;3.75;;
60873;SDS011;46715;40.642;-7.920;2023-01-16T11:04:33;20.70;;;4.10;;
60873;SDS011;46715;40.642;-7.920;2023-01-16T11:06:35;18.00;;;4.00;;
60873;SDS011;46715;40.642;-7.920;2023-01-16T11:08:41;17.58;;;4.80;;
60873;SDS011;46715;40.642;-7.920;2023-01-16T11:10:45;18.98;;;5.72;;
60873;SDS011;46715;40.642;-7.920;2023-01-16T11:12:49;15.50;;;5.10;;
60873;SDS011;46715;40.642;-7.920;2023-01-16T11:15:20;19.85;;;4.15;;
60873;SDS011;46715;40.642;-7.920;2023-01-16T11:17:42;27.73;;;4.75;;
60873;SDS011;46715;40.642;-7.920;2023-01-16T11:20:16;18.48;;;3.67;;
60873;SDS011;46715;40.642;-7.920;2023-01-16T11:22:25;15.55;;;3.38;;
60873;SDS011;46715;40.642;-7.920;2023-01-16T11:24:30;18.60;;;3.58;;
60873;SDS011;46715;40.642;-7.920;2023-01-16T11:26:33;14.85;;;3.45;;
60873;SDS011;46715;40.642;-7.920;2023-01-16T11:28:34;11.37;;;3.87;;
60873;SDS011;46715;40.642;-7.920;2023-01-16T11:30:37;8.07;;;3.15;;
60873;SDS011;46715;40.642;-7.920;2023-01-16T11:32:40;16.70;;;3.88;;
60873;SDS011;46715;40.642;-7.920;2023-01-16T11:34:49;13.93;;;3.33;;
60873;SDS011;46715;40.642;-7.920;2023-01-16T11:36:50;13.20;;;2.77;;
60873;SDS011;46715;40.642;-7.920;2023-01-16T11:38:52;12.13;;;3.75;;
60873;SDS011;46715;40.642;-7.920;2023-01-16T11:40:57;11.70;;;3.55;;
60873;SDS011;46715;40.642;-7.920;2023-01-16T11:43:00;17.50;;;4.40;;
60873;SDS011;46715;40.642;-7.920;2023-01-16T11:45:31;11.18;;;3.75;;
60873;SDS011;46715;40.642;-7.920;2023-01-16T11:47:50;12.95;;;4.00;;
60873;SDS011;46715;40.642;-7.920;2023-01-16T11:49:55;10.43;;;4.00;;
60873;SDS011;46715;40.642;-7.920;2023-01-16T11:51:57;9.88;;;3.58;;
60873;SDS011;46715;40.642;-7.920;2023-01-16T11:54:04;8.63;;;2.63;;
60873;SDS011;46715;40.642;-7.920;2023-01-16T12:00:58;8.88;;;3.40;;
60873;SDS011;46715;40.642;-7.920;2023-01-16T12:03:25;12.93;;;3.28;;
60873;SDS011;46715;40.642;-7.920;2023-01-16T12:05:36;11.30;;;3.72;;
60873;SDS011;46715;40.642;-7.920;2023-01-16T12:10:19;8.65;;;2.30;;
60873;SDS011;46715;40.642;-7.920;2023-01-16T12:12:57;8.57;;;2.58;;
60873;SDS011;46715;40.642;-7.920;2023-01-16T12:17:34;9.32;;;2.30;;
60873;SDS011;46715;40.642;-7.920;2023-01-16T12:26:55;4.97;;;1.63;;
60873;SDS011;46715;40.642;-7.920;2023-01-16T12:29:12;7.45;;;2.17;;
60873;SDS011;46715;40.642;-7.920;2023-01-16T12:33:42;8.07;;;2.05;;
60873;SDS011;46715;40.642;-7.920;2023-01-16T12:38:36;4.35;;;2.20;;
60873;SDS011;46715;40.642;-7.920;2023-01-16T12:43:36;3.22;;;1.63;;
60873;SDS011;46715;40.642;-7.920;2023-01-16T12:45:52;5.15;;;1.60;;
60873;SDS011;46715;40.642;-7.920;2023-01-16T12:48:08;4.43;;;1.53;;
60873;SDS011;46715;40.642;-7.920;2023-01-16T12:59:49;3.80;;;1.30;;
60873;SDS011;46715;40.642;-7.920;2023-01-16T13:01:56;4.57;;;1.55;;
60873;SDS011;46715;40.642;-7.920;2023-01-16T13:04:15;3.30;;;1.73;;
60873;SDS011;46715;40.642;-7.920;2023-01-16T13:08:37;3.90;;;2.13;;
60873;SDS011;46715;40.642;-7.920;2023-01-16T13:10:44;10.80;;;2.53;;
60873;SDS011;46715;40.642;-7.920;2023-01-16T13:13:18;9.63;;;2.30;;
60873;SDS011;46715;40.642;-7.920;2023-01-16T13:15:36;5.75;;;2.17;;
60873;SDS011;46715;40.642;-7.920;2023-01-16T13:18:14;7.07;;;1.77;;
60873;SDS011;46715;40.642;-7.920;2023-01-16T13:20:28;6.65;;;2.00;;
60873;SDS011;46715;40.642;-7.920;2023-01-16T13:24:45;4.75;;;2.28;;
60873;SDS011;46715;40.642;-7.920;2023-01-16T13:26:53;8.68;;;1.80;;
60873;SDS011;46715;40.642;-7.920;2023-01-16T13:31:02;6.90;;;2.50;;
60873;SDS011;46715;40.642;-7.920;2023-01-16T13:33:11;6.13;;;1.80;;
60873;SDS011;46715;40.642;-7.920;2023-01-16T13:42:06;9.38;;;2.80;;
60873;SDS011;46715;40.642;-7.920;2023-01-16T13:44:18;9.32;;;2.60;;
60873;SDS011;46715;40.642;-7.920;2023-01-16T13:46:44;10.85;;;3.10;;
60873;SDS011;46715;40.642;-7.920;2023-01-16T13:48:50;6.53;;;2.42;;
60873;SDS011;46715;40.642;-7.920;2023-01-16T13:50:59;6.13;;;2.05;;
60873;SDS011;46715;40.642;-7.920;2023-01-16T13:53:08;10.27;;;2.40;;
60873;SDS011;46715;40.642;-7.920;2023-01-16T13:55:21;7.18;;;3.05;;
60873;SDS011;46715;40.642;-7.920;2023-01-16T13:57:30;10.35;;;2.53;;
60873;SDS011;46715;40.642;-7.920;2023-01-16T13:59:39;10.07;;;2.85;;
60873;SDS011;46715;40.642;-7.920;2023-01-16T14:04:04;6.73;;;1.90;;
60873;SDS011;46715;40.642;-7.920;2023-01-16T14:06:20;9.20;;;2.30;;
60873;SDS011;46715;40.642;-7.920;2023-01-16T14:08:28;8.35;;;1.77;;
60873;SDS011;46715;40.642;-7.920;2023-01-16T14:18:43;5.57;;;2.30;;
60873;SDS011;46715;40.642;-7.920;2023-01-16T14:21:03;6.57;;;2.20;;
60873;SDS011;46715;40.642;-7.920;2023-01-16T14:23:16;7.07;;;2.42;;
60873;SDS011;46715;40.642;-7.920;2023-01-16T14:25:44;12.80;;;1.90;;
60873;SDS011;46715;40.642;-7.920;2023-01-16T14:27:47;5.47;;;1.77;;
60873;SDS011;46715;40.642;-7.920;2023-01-16T14:29:52;7.30;;;1.77;;
60873;SDS011;46715;40.642;-7.920;2023-01-16T14:32:02;5.53;;;2.03;;
60873;SDS011;46715;40.642;-7.920;2023-01-16T14:34:15;8.75;;;2.30;;
60873;SDS011;46715;40.642;-7.920;2023-01-16T14:36:22;5.68;;;1.73;;
60873;SDS011;46715;40.642;-7.920;2023-01-16T14:38:29;7.63;;;1.73;;
60873;SDS011;46715;40.642;-7.920;2023-01-16T14:40:45;12.25;;;3.35;;
60873;SDS011;46715;40.642;-7.920;2023-01-16T14:43:15;9.13;;;2.75;;
60873;SDS011;46715;40.642;-7.920;2023-01-16T14:46:49;9.57;;;2.88;;
60873;SDS011;46715;40.642;-7.920;2023-01-16T14:48:36;8.15;;;2.35;;
60873;SDS011;46715;40.642;-7.920;2023-01-16T14:53:19;6.57;;;2.58;;
60873;SDS011;46715;40.642;-7.920;2023-01-16T14:55:55;6.45;;;2.70;;
60873;SDS011;46715;40.642;-7.920;2023-01-16T14:58:05;5.95;;;2.38;;
60873;SDS011;46715;40.642;-7.920;2023-01-16T15:00:11;8.57;;;2.55;;
60873;SDS011;46715;40.642;-7.920;2023-01-16T15:02:25;7.45;;;2.25;;
60873;SDS011;46715;40.642;-7.920;2023-01-16T15:04:51;9.27;;;2.65;;
60873;SDS011;46715;40.642;-7.920;2023-01-16T15:08:58;7.53;;;2.67;;
60873;SDS011;46715;40.642;-7.920;2023-01-16T15:13:31;7.85;;;3.78;;
60873;SDS011;46715;40.642;-7.920;2023-01-16T15:16:01;7.25;;;2.55;;
60873;SDS011;46715;40.642;-7.920;2023-01-16T15:18:04;8.90;;;2.28;;
60873;SDS011;46715;40.642;-7.920;2023-01-16T15:20:30;7.30;;;3.03;;
60873;SDS011;46715;40.642;-7.920;2023-01-16T15:22:51;7.53;;;3.15;;
60873;SDS011;46715;40.642;-7.920;2023-01-16T15:24:57;9.82;;;4.07;;
60873;SDS011;46715;40.642;-7.920;2023-01-16T15:27:06;7.87;;;3.70;;
60873;SDS011;46715;40.642;-7.920;2023-01-16T15:29:24;9.93;;;2.97;;
60873;SDS011;46715;40.642;-7.920;2023-01-16T15:31:56;3.58;;;2.35;;
60873;SDS011;46715;40.642;-7.920;2023-01-16T15:34:04;8.35;;;3.13;;
60873;SDS011;46715;40.642;-7.920;2023-01-16T15:36:15;8.02;;;3.67;;